Time;durP1;ratioP1;P1;durP2;ratioP2;P2;SDS_P1;SDS_P2;PMS_P1;PMS_P2;Temp;Humidity;BMP_temperature;BMP_pressure;BME280_temperature;BME280_humidity;BME280_pressure;Samples;Min_cycle;Max_cycle;Signal;HPM_P1;HPM_P2
2023/05/23 00:02:15;;;;;;;29.87;14.17;;;;;;;13.80;100.00;102061.03;5032986;28;20021;-69
2023/05/23 00:04:41;;;;;;;38.17;16.33;;;;;;;13.77;100.00;102055.91;5033019;28;20052;-69
2023/05/23 00:07:07;;;;;;;48.90;16.73;;;;;;;13.66;100.00;102051.72;5039942;28;20024;-68
2023/05/23 00:09:32;;;;;;;46.97;16.27;;;;;;;13.55;100.00;102052.16;5032067;28;20087;-69
2023/05/23 00:11:58;;;;;;;46.03;15.27;;;;;;;13.59;100.00;102052.66;5033305;28;20104;-70
2023/05/23 00:14:24;;;;;;;54.33;15.97;;;;;;;13.63;100.00;102054.00;5038973;28;20041;-68
2023/05/23 00:16:50;;;;;;;38.35;15.10;;;;;;;13.67;100.00;102052.59;5041645;28;20050;-69
2023/05/23 00:19:16;;;;;;;48.40;15.90;;;;;;;13.63;100.00;102052.09;5035634;28;20029;-69
2023/05/23 00:21:42;;;;;;;39.23;14.87;;;;;;;13.52;100.00;102059.97;5035957;28;20389;-69
2023/05/23 00:24:09;;;;;;;37.83;14.88;;;;;;;13.42;100.00;102054.72;5037385;28;20025;-69
2023/05/23 00:26:35;;;;;;;41.28;15.50;;;;;;;13.34;100.00;102064.97;5034513;28;20382;-69
2023/05/23 00:29:01;;;;;;;39.15;13.18;;;;;;;13.36;100.00;102060.09;5040428;28;20032;-68
2023/05/23 00:31:26;;;;;;;37.00;13.83;;;;;;;13.37;100.00;102053.56;5037287;28;20041;-69
2023/05/23 00:33:52;;;;;;;40.17;14.23;;;;;;;13.46;100.00;102055.19;5020015;28;20164;-69
2023/05/23 00:36:17;;;;;;;39.87;13.97;;;;;;;13.45;100.00;102059.84;5036022;28;20055;-69
2023/05/23 00:38:44;;;;;;;42.20;14.23;;;;;;;13.44;100.00;102054.53;5034901;28;20038;-69
2023/05/23 00:41:10;;;;;;;;;;;;;;;13.45;100.00;102070.00;5040707;28;20468;-69
2023/05/23 00:43:35;;;;;;;33.72;13.43;;;;;;;13.44;100.00;102066.38;5069457;28;19913;-68
2023/05/23 00:46:01;;;;;;;37.53;13.60;;;;;;;13.35;100.00;102064.75;5033585;28;20033;-69
2023/05/23 00:48:27;;;;;;;32.40;12.27;;;;;;;13.34;100.00;102071.28;5037412;28;20055;-69
2023/05/23 00:50:54;;;;;;;23.42;11.40;;;;;;;13.40;100.00;102069.72;5037703;28;20608;-68
2023/05/23 00:53:20;;;;;;;26.33;11.80;;;;;;;13.37;100.00;102079.19;5041533;28;20045;-69
2023/05/23 00:55:46;;;;;;;33.20;11.70;;;;;;;13.39;100.00;102074.34;5039708;28;20035;-68
2023/05/23 00:58:14;;;;;;;24.17;11.57;;;;;;;13.36;100.00;102082.13;5037399;28;20024;-68
2023/05/23 01:00:40;;;;;;;23.20;9.82;;;;;;;13.40;100.00;102081.56;5035790;28;20381;-68
2023/05/23 01:03:06;;;;;;;;;;;;;;;13.41;100.00;102082.44;5034880;28;20033;-68
2023/05/23 01:05:31;;;;;;;24.20;9.00;;;;;;;13.44;100.00;102071.91;5039632;28;20393;-68
2023/05/23 01:07:57;;;;;;;16.40;7.90;;;;;;;13.45;100.00;102083.78;5035595;28;20053;-68
2023/05/23 01:10:25;;;;;;;18.33;8.00;;;;;;;13.39;100.00;102079.03;5039551;28;20481;-68
2023/05/23 01:12:54;;;;;;;24.00;8.32;;;;;;;13.49;100.00;102069.44;5040571;28;20065;-67
2023/05/23 01:15:22;;;;;;;19.90;9.20;;;;;;;13.44;100.00;102080.16;5038649;28;20443;-68
2023/05/23 01:17:57;;;;;;;19.40;8.65;;;;;;;13.49;100.00;102074.94;5043020;28;20524;-68
2023/05/23 01:20:49;;;;;;;27.48;9.20;;;;;;;13.47;100.00;102076.19;5039753;28;20065;-68
2023/05/23 01:23:39;;;;;;;20.50;8.00;;;;;;;13.42;100.00;102086.88;5041406;28;20505;-68
2023/05/23 01:26:58;;;;;;;28.02;9.88;;;;;;;13.39;100.00;102087.28;5035391;28;20026;-68
2023/05/23 01:29:27;;;;;;;22.77;9.73;;;;;;;13.43;100.00;102080.34;4990230;28;20395;-70
2023/05/23 01:31:56;;;;;;;21.10;8.85;;;;;;;13.45;100.00;102089.28;5010628;28;20045;-69
2023/05/23 01:34:22;;;;;;;20.98;10.10;;;;;;;13.44;100.00;102085.66;5023458;28;20501;-69
2023/05/23 01:36:54;;;;;;;32.63;9.80;;;;;;;13.46;100.00;102079.97;5038242;28;20084;-69
2023/05/23 01:39:21;;;;;;;28.05;11.35;;;;;;;13.40;100.00;102080.72;5038155;28;20087;-68
2023/05/23 01:41:48;;;;;;;29.38;10.90;;;;;;;13.43;100.00;102085.84;5053064;28;20045;-68
2023/05/23 01:44:15;;;;;;;29.13;11.60;;;;;;;13.53;100.00;102089.19;5039633;28;20108;-68
2023/05/23 01:46:43;;;;;;;29.75;11.55;;;;;;;13.57;100.00;102076.78;5033290;28;20520;-68
2023/05/23 01:49:11;;;;;;;25.08;11.85;;;;;;;13.47;100.00;102092.69;5044232;28;20028;-68
2023/05/23 01:51:38;;;;;;;23.88;10.82;;;;;;;13.52;100.00;102088.34;5050815;28;20021;-68
2023/05/23 01:54:03;;;;;;;23.48;11.70;;;;;;;13.57;100.00;102091.41;5041193;28;20604;-67
2023/05/23 01:56:29;;;;;;;23.67;11.80;;;;;;;13.54;100.00;102094.53;5037639;28;20124;-69
2023/05/23 01:58:55;;;;;;;28.10;10.50;;;;;;;13.54;100.00;102099.16;5043854;28;20427;-68
2023/05/23 02:01:21;;;;;;;30.33;11.97;;;;;;;13.60;100.00;102092.94;5037260;28;20033;-69
2023/05/23 02:03:46;;;;;;;30.87;13.10;;;;;;;13.55;100.00;102095.38;5038592;28;20100;-69
2023/05/23 02:06:11;;;;;;;35.37;12.37;;;;;;;13.47;100.00;102103.69;5036136;28;20489;-69
2023/05/23 02:08:37;;;;;;;26.33;10.90;;;;;;;13.57;100.00;102090.53;5039304;28;20120;-69
2023/05/23 02:11:03;;;;;;;33.83;11.20;;;;;;;13.57;100.00;102091.41;5036301;28;20032;-68
2023/05/23 02:13:30;;;;;;;26.40;11.23;;;;;;;13.56;100.00;102094.34;5040290;28;20017;-69
2023/05/23 02:15:55;;;;;;;31.13;12.38;;;;;;;13.53;100.00;102102.97;5037966;28;20385;-69
2023/05/23 02:18:24;;;;;;;28.20;10.10;;;;;;;13.56;100.00;102097.09;5042265;28;20029;-68
2023/05/23 02:20:50;;;;;;;31.63;10.95;;;;;;;13.60;100.00;102092.94;5038624;28;20021;-68
2023/05/23 02:23:16;;;;;;;37.27;11.77;;;;;;;13.64;100.00;102085.97;5042055;28;20411;-68
2023/05/23 02:25:41;;;;;;;36.03;10.07;;;;;;;13.71;100.00;102092.47;5038946;28;20385;-69
2023/05/23 02:28:06;;;;;;;31.60;10.63;;;;;;;13.66;100.00;102093.03;5036777;28;20037;-68
2023/05/23 02:30:32;;;;;;;32.70;9.80;;;;;;;13.66;100.00;102094.94;5040517;28;20025;-70
2023/05/23 02:32:57;;;;;;;38.00;9.63;;;;;;;13.61;100.00;102100.97;5033943;28;20030;-70
2023/05/23 02:35:23;;;;;;;33.77;9.47;;;;;;;13.59;100.00;102102.22;5034727;28;20126;-70
2023/05/23 02:37:48;;;;;;;27.07;10.03;;;;;;;13.63;100.00;102109.06;5041104;28;20037;-71
2023/05/23 02:40:14;;;;;;;35.80;10.40;;;;;;;13.63;100.00;102109.06;5036928;28;20067;-71
2023/05/23 02:42:39;;;;;;;39.03;9.47;;;;;;;13.62;100.00;102115.63;5039781;28;20044;-70
2023/05/23 02:45:05;;;;;;;31.63;9.70;;;;;;;13.59;100.00;102105.84;5036248;28;20025;-70
2023/05/23 02:47:31;;;;;;;37.87;10.37;;;;;;;13.61;100.00;102119.41;5036514;28;20064;-71
2023/05/23 02:49:56;;;;;;;38.70;11.30;;;;;;;13.66;100.00;102126.06;5038806;28;20033;-71
2023/05/23 02:52:21;;;;;;;32.83;10.30;;;;;;;13.66;100.00;102120.56;5040414;28;20101;-71
2023/05/23 02:54:49;;;;;;;33.67;10.20;;;;;;;13.68;100.00;102126.75;5036285;28;20037;-71
2023/05/23 02:57:15;;;;;;;33.90;10.10;;;;;;;13.57;100.00;102132.72;5032057;28;20041;-69
2023/05/23 02:59:41;;;;;;;24.75;9.05;;;;;;;13.61;100.00;102128.50;5035164;28;20029;-69
2023/05/23 03:02:06;;;;;;;23.20;9.17;;;;;;;13.63;100.00;102131.09;5037530;28;20093;-69
2023/05/23 03:04:32;;;;;;;30.40;9.23;;;;;;;13.60;100.00;102125.97;5042842;28;20025;-69
2023/05/23 03:06:59;;;;;;;20.30;8.53;;;;;;;13.57;100.00;102127.19;5043598;28;20021;-69
2023/05/23 03:09:25;;;;;;;27.38;8.75;;;;;;;13.57;100.00;102124.44;5041601;28;20060;-69
2023/05/23 03:11:50;;;;;;;32.73;9.60;;;;;;;13.57;100.00;102129.94;5036630;28;20064;-68
2023/05/23 03:14:16;;;;;;;30.20;9.53;;;;;;;13.52;100.00;102126.91;5039760;28;20036;-70
2023/05/23 03:16:43;;;;;;;33.90;10.17;;;;;;;13.58;100.00;102128.03;5032289;28;20025;-69
2023/05/23 03:19:08;;;;;;;31.02;10.80;;;;;;;13.48;100.00;102133.81;5038163;28;20067;-71
2023/05/23 03:21:34;;;;;;;33.40;10.33;;;;;;;13.51;100.00;102130.66;5038079;28;20052;-69
2023/05/23 03:24:00;;;;;;;25.70;9.47;;;;;;;13.45;100.00;102122.31;5043260;28;20134;-69
2023/05/23 03:26:25;;;;;;;24.07;9.07;;;;;;;13.51;100.00;102130.66;5036102;28;20029;-69
2023/05/23 03:28:51;;;;;;;35.17;9.73;;;;;;;13.40;100.00;102130.25;5039937;28;20116;-69
2023/05/23 03:31:17;;;;;;;28.70;9.43;;;;;;;13.43;100.00;102124.38;5034877;28;20059;-70
2023/05/23 03:33:42;;;;;;;29.83;8.63;;;;;;;13.42;100.00;102128.16;5037019;28;20485;-69
2023/05/23 03:36:08;;;;;;;30.13;9.00;;;;;;;13.47;100.00;102132.09;5035479;28;20041;-69
2023/05/23 03:38:33;;;;;;;29.70;7.37;;;;;;;13.51;100.00;102135.34;5032150;28;20041;-69
2023/05/23 03:40:59;;;;;;;34.30;6.53;;;;;;;13.37;100.00;102131.50;5038376;28;20060;-69
2023/05/23 03:43:24;;;;;;;31.27;8.20;;;;;;;13.34;100.00;102131.84;5037853;28;20076;-74
2023/05/23 03:45:49;;;;;;;28.43;7.07;;;;;;;13.27;100.00;102143.75;5036129;28;20038;-69
2023/05/23 03:48:15;;;;;;;21.40;6.90;;;;;;;13.22;100.00;102144.31;5034476;28;20045;-69
2023/05/23 03:50:40;;;;;;;33.60;7.17;;;;;;;13.21;100.00;102150.00;5036074;28;20123;-69
2023/05/23 03:53:06;;;;;;;31.20;8.80;;;;;;;13.24;100.00;102153.25;5042281;28;20029;-69
2023/05/23 03:55:33;;;;;;;30.97;7.67;;;;;;;13.17;100.00;102159.66;5038380;28;20232;-69
2023/05/23 03:57:58;;;;;;;25.58;7.22;;;;;;;13.19;100.00;102157.59;5041426;28;20300;-70
2023/05/23 04:00:24;;;;;;;24.33;6.80;;;;;;;13.17;100.00;102154.16;5034655;28;20030;-69
2023/05/23 04:02:50;;;;;;;27.47;7.53;;;;;;;13.12;100.00;102164.88;5035588;28;20113;-69
2023/05/23 04:05:16;;;;;;;19.33;6.07;;;;;;;13.06;100.00;102162.81;5034967;28;20021;-70
2023/05/23 04:07:42;;;;;;;44.23;7.63;;;;;;;13.01;100.00;102159.75;5038223;28;20037;-69
2023/05/23 04:10:08;;;;;;;29.07;7.23;;;;;;;13.05;100.00;102170.22;5042698;28;20061;-69
2023/05/23 04:12:34;;;;;;;19.77;6.53;;;;;;;12.99;100.00;102175.59;5034139;28;20059;-70
2023/05/23 04:14:59;;;;;;;24.63;7.10;;;;;;;13.02;100.00;102156.81;5035896;28;20025;-69
2023/05/23 04:17:29;;;;;;;17.10;6.37;;;;;;;13.03;100.00;102168.69;5038977;28;20135;-69
2023/05/23 04:19:57;;;;;;;25.15;6.40;;;;;;;12.99;100.00;102170.97;5034075;28;20376;-69
2023/05/23 04:22:25;;;;;;;23.27;6.82;;;;;;;13.04;100.00;102182.28;5038546;28;20451;-69
2023/05/23 04:24:51;;;;;;;20.48;6.22;;;;;;;13.08;100.00;102180.03;5032896;28;20029;-69
2023/05/23 04:27:16;;;;;;;20.23;7.77;;;;;;;13.06;100.00;102182.94;5038253;28;20035;-69
2023/05/23 04:29:43;;;;;;;21.50;7.70;;;;;;;12.99;100.00;102189.34;5032963;28;20021;-68
2023/05/23 04:32:08;;;;;;;29.77;7.43;;;;;;;12.92;100.00;102199.34;5038651;28;20033;-69
2023/05/23 04:34:34;;;;;;;28.87;6.70;;;;;;;12.95;100.00;102196.22;5033349;28;20040;-68
2023/05/23 04:37:02;;;;;;;13.67;6.10;;;;;;;12.93;99.89;102195.53;5035272;28;20447;-68
2023/05/23 04:39:28;;;;;;;22.05;6.15;;;;;;;12.89;99.54;102207.94;5038072;28;20029;-69
2023/05/23 04:41:55;;;;;;;26.42;6.22;;;;;;;12.90;99.03;102199.50;5036948;28;20051;-69
2023/05/23 04:44:25;;;;;;;24.23;5.95;;;;;;;12.89;98.05;102206.03;5035420;28;20523;-69
2023/05/23 04:46:51;;;;;;;24.13;5.95;;;;;;;12.76;97.64;102200.25;5033880;28;20388;-70
2023/05/23 04:49:16;;;;;;;24.13;6.23;;;;;;;12.80;98.20;102203.53;5033558;28;20037;-69
2023/05/23 04:51:42;;;;;;;28.73;6.37;;;;;;;12.64;97.52;102198.94;5044927;28;20029;-69
2023/05/23 04:54:08;;;;;;;18.37;5.43;;;;;;;12.71;96.69;102212.84;5039111;28;20086;-69
2023/05/23 04:56:33;;;;;;;16.57;5.30;;;;;;;12.63;93.57;102224.72;5038410;28;20045;-70
2023/05/23 04:58:59;;;;;;;22.77;7.10;;;;;;;12.64;93.69;102212.66;5040977;28;20021;-70
2023/05/23 05:01:24;;;;;;;28.17;7.07;;;;;;;12.69;93.02;102226.75;5040504;28;20036;-69
2023/05/23 05:03:51;;;;;;;23.93;6.63;;;;;;;12.67;92.40;102228.81;5043944;28;20029;-69
2023/05/23 05:06:17;;;;;;;25.95;6.43;;;;;;;12.65;93.07;102243.78;5044770;28;20067;-69
2023/05/23 05:08:43;;;;;;;26.05;6.68;;;;;;;12.71;93.13;102234.81;5039230;28;20029;-69
2023/05/23 05:11:10;;;;;;;22.80;8.10;;;;;;;12.72;91.40;102234.66;5047770;28;20052;-68
2023/05/23 05:13:37;;;;;;;21.58;7.75;;;;;;;12.81;90.98;102243.72;5035716;28;20022;-69
2023/05/23 05:16:02;;;;;;;26.30;7.75;;;;;;;12.76;91.19;102236.00;5042332;28;20500;-68
2023/05/23 05:18:29;;;;;;;24.33;8.33;;;;;;;12.83;90.84;102228.75;5040646;28;20025;-69
2023/05/23 05:20:54;;;;;;;27.70;7.35;;;;;;;12.84;90.76;102243.34;5044358;28;20087;-69
2023/05/23 05:23:24;;;;;;;25.63;7.13;;;;;;;12.90;90.81;102242.63;5040230;28;20040;-69
2023/05/23 05:25:49;;;;;;;24.63;7.55;;;;;;;12.98;90.46;102234.41;5038888;28;20480;-69
2023/05/23 05:28:16;;;;;;;23.73;8.17;;;;;;;13.05;89.78;102254.66;5040511;28;20025;-68
2023/05/23 05:30:45;;;;;;;;;;;;;;;13.00;89.15;102254.31;5038441;28;20104;-68
2023/05/23 05:33:10;;;;;;;;;;;;;;;12.96;89.32;102253.81;5037191;28;20288;-68
2023/05/23 05:35:37;;;;;;;26.70;8.05;;;;;;;13.08;89.04;102254.31;5038830;28;19921;-69
2023/05/23 05:38:03;;;;;;;31.55;9.85;;;;;;;12.85;88.67;102264.31;5043475;28;20761;-72
2023/05/23 05:40:30;;;;;;;23.65;8.32;;;;;;;12.80;89.54;102258.53;5036818;28;20116;-72
2023/05/23 05:42:56;;;;;;;30.83;9.38;;;;;;;12.94;88.71;102263.25;5046582;28;20025;-72
2023/05/23 05:45:21;;;;;;;24.43;8.93;;;;;;;12.85;88.99;102269.81;5038594;28;20024;-72
2023/05/23 05:47:47;;;;;;;26.63;8.97;;;;;;;12.87;89.00;102270.50;5038785;28;20083;-73
2023/05/23 05:50:12;;;;;;;32.80;8.20;;;;;;;12.93;88.59;102273.41;5035604;28;20021;-73
2023/05/23 05:52:38;;;;;;;25.07;8.10;;;;;;;13.06;87.55;102281.13;5044616;28;20025;-73
2023/05/23 05:55:10;;;;;;;27.38;8.90;;;;;;;13.02;86.35;102291.63;5044804;28;20041;-72
2023/05/23 05:57:39;;;;;;;19.88;7.53;;;;;;;12.92;85.47;102309.34;5038681;28;20134;-72
2023/05/23 06:00:11;;;;;;;30.60;8.27;;;;;;;12.89;85.57;102290.44;5034184;28;20561;-73
2023/05/23 06:02:37;;;;;;;22.67;8.60;;;;;;;12.96;85.91;102299.75;5041549;28;20032;-72
2023/05/23 06:05:03;;;;;;;22.40;7.90;;;;;;;12.81;85.68;102295.97;5038698;28;21961;-72
2023/05/23 06:07:28;;;;;;;18.50;7.60;;;;;;;12.71;86.36;102287.91;5036541;28;20067;-72
2023/05/23 06:09:53;;;;;;;28.33;7.70;;;;;;;12.81;86.30;102298.72;5039152;28;20037;-72
2023/05/23 06:12:19;;;;;;;39.03;8.53;;;;;;;12.81;86.85;102304.22;5041868;28;20105;-73
2023/05/23 06:14:44;;;;;;;23.17;7.63;;;;;;;12.93;87.69;102302.81;5034301;28;20525;-74
2023/05/23 06:17:09;;;;;;;21.20;8.17;;;;;;;12.88;87.46;102297.84;5038183;28;20025;-73
2023/05/23 06:19:36;;;;;;;24.17;8.70;;;;;;;12.89;87.27;102299.56;5040243;28;20389;-73
2023/05/23 06:22:01;;;;;;;16.10;6.60;;;;;;;12.82;87.98;102293.03;5039161;28;20041;-72
2023/05/23 06:24:27;;;;;;;31.43;7.97;;;;;;;12.81;88.42;102298.72;5042001;28;20048;-73
2023/05/23 06:26:52;;;;;;;27.03;7.47;;;;;;;12.71;88.92;102298.06;5043538;28;20031;-72
2023/05/23 06:29:17;;;;;;;30.67;9.10;;;;;;;12.88;89.08;102292.34;5039705;28;20060;-74
2023/05/23 06:31:43;;;;;;;22.10;8.10;;;;;;;12.88;89.38;102300.59;5034855;28;20033;-73
2023/05/23 06:34:08;;;;;;;22.73;7.30;;;;;;;12.93;89.94;102303.69;5044730;28;20052;-73
2023/05/23 06:36:34;;;;;;;25.47;7.40;;;;;;;12.93;90.04;102300.94;5036038;28;20485;-73
2023/05/23 06:38:59;;;;;;;21.10;7.90;;;;;;;13.18;90.09;102309.97;5041915;28;20025;-73
2023/05/23 06:41:24;;;;;;;22.03;7.07;;;;;;;12.97;90.79;102309.72;5039820;28;20036;-73
2023/05/23 06:43:50;;;;;;;19.03;7.37;;;;;;;12.95;91.48;102300.72;5043968;28;20017;-72
2023/05/23 06:46:15;;;;;;;31.63;7.57;;;;;;;12.89;92.00;102309.69;5036726;28;20504;-73
2023/05/23 06:48:40;;;;;;;18.87;6.83;;;;;;;12.84;92.83;102307.47;5038067;28;20032;-74
2023/05/23 06:51:06;;;;;;;24.07;7.30;;;;;;;12.90;92.45;102308.66;5037806;28;20029;-73
2023/05/23 06:53:31;;;;;;;20.03;6.43;;;;;;;12.88;92.63;102306.09;5038669;28;20037;-73
2023/05/23 06:55:57;;;;;;;26.73;6.83;;;;;;;12.87;92.61;102309.03;5039720;28;20025;-73
2023/05/23 06:58:23;;;;;;;17.13;7.07;;;;;;;12.92;92.38;102314.84;5036819;28;20021;-73
2023/05/23 07:00:49;;;;;;;14.45;5.80;;;;;;;12.87;93.08;102314.50;5033864;28;20056;-73
2023/05/23 07:03:15;;;;;;;17.43;5.93;;;;;;;12.60;94.66;102328.66;5039272;28;20110;-72
2023/05/23 07:05:40;;;;;;;13.70;5.97;;;;;;;12.64;94.63;102321.81;5036487;28;20026;-73
2023/05/23 07:08:06;;;;;;;15.13;5.33;;;;;;;12.78;94.41;102315.56;5040112;28;20036;-73
2023/05/23 07:10:33;;;;;;;15.10;5.30;;;;;;;12.77;94.01;102325.72;5049861;28;20099;-73
2023/05/23 07:12:59;;;;;;;13.73;5.30;;;;;;;12.73;94.79;102326.22;5037969;28;20388;-73
2023/05/23 07:15:24;;;;;;;12.87;6.23;;;;;;;12.72;94.41;102338.25;5031147;28;20021;-73
2023/05/23 07:17:49;;;;;;;16.23;6.60;;;;;;;12.73;94.20;102337.22;5039207;28;20103;-73
2023/05/23 07:20:15;;;;;;;16.50;5.93;;;;;;;12.72;94.59;102343.75;5038476;28;20029;-73
2023/05/23 07:22:40;;;;;;;14.30;6.00;;;;;;;12.83;93.92;102329.66;5034094;28;20519;-73
2023/05/23 07:25:06;;;;;;;20.10;5.93;;;;;;;12.90;94.16;102330.66;5039633;28;20031;-73
2023/05/23 07:27:32;;;;;;;18.33;5.97;;;;;;;13.03;93.79;102336.50;5042835;28;20053;-73
2023/05/23 07:29:57;;;;;;;15.23;6.10;;;;;;;13.05;93.57;102346.28;5033787;28;20060;-73
2023/05/23 07:32:23;;;;;;;16.10;4.57;;;;;;;13.09;93.51;102338.53;5039819;28;20121;-72
2023/05/23 07:34:48;;;;;;;19.37;4.90;;;;;;;12.96;92.68;102338.25;5033482;28;20113;-73
2023/05/23 07:37:13;;;;;;;25.40;4.50;;;;;;;13.15;92.27;102344.19;5039004;28;20037;-73
2023/05/23 07:39:40;;;;;;;25.83;6.70;;;;;;;13.07;90.41;102346.13;5037283;28;20051;-72
2023/05/23 07:42:06;;;;;;;19.20;4.55;;;;;;;13.11;90.43;102351.09;5034503;28;20044;-72
2023/05/23 07:44:31;;;;;;;17.57;3.90;;;;;;;13.20;90.06;102351.91;5040041;28;20025;-73
2023/05/23 07:46:56;;;;;;;26.10;5.67;;;;;;;13.25;89.58;102347.63;5041368;28;20532;-73
2023/05/23 07:49:22;;;;;;;18.93;3.97;;;;;;;13.52;88.20;102347.13;5037695;28;20253;-73
2023/05/23 07:51:47;;;;;;;18.73;4.17;;;;;;;14.03;84.98;102348.38;5039582;28;20028;-72
2023/05/23 07:54:13;;;;;;;16.37;3.50;;;;;;;14.65;82.22;102342.53;5033801;28;20068;-72
2023/05/23 07:56:38;;;;;;;14.87;3.40;;;;;;;14.43;79.14;102348.06;5033978;28;20369;-72
2023/05/23 07:59:04;;;;;;;15.37;3.53;;;;;;;14.82;75.37;102354.25;5034042;28;20017;-71
2023/05/23 08:01:30;;;;;;;21.43;3.50;;;;;;;14.86;72.03;102352.81;5034542;28;20604;-73
2023/05/23 08:03:56;;;;;;;25.05;4.18;;;;;;;15.08;69.84;102357.41;5036074;28;20036;-73
2023/05/23 08:06:21;;;;;;;19.47;3.90;;;;;;;14.99;69.05;102361.31;5040782;28;20033;-73
2023/05/23 08:08:46;;;;;;;22.97;4.40;;;;;;;15.33;69.42;102356.13;5041957;28;20017;-72
2023/05/23 08:11:13;;;;;;;18.73;4.67;;;;;;;15.56;67.58;102371.53;5035958;28;20060;-72
2023/05/23 08:13:39;;;;;;;;;;;;;;;15.48;67.99;102368.00;5040249;28;20055;-72
2023/05/23 08:16:07;;;;;;;17.70;3.95;;;;;;;15.41;68.11;102369.81;5039199;28;20361;-72
2023/05/23 08:18:33;;;;;;;17.75;3.97;;;;;;;15.58;67.68;102365.81;5039781;28;20033;-73
2023/05/23 08:20:58;;;;;;;18.83;3.80;;;;;;;15.20;67.96;102366.94;5037398;28;20025;-73
2023/05/23 08:23:24;;;;;;;26.77;4.13;;;;;;;15.27;67.65;102374.25;5040491;28;21608;-73
2023/05/23 08:25:50;;;;;;;24.67;4.90;;;;;;;15.42;66.92;102366.88;5034743;28;20023;-72
2023/05/23 08:28:15;;;;;;;17.52;3.40;;;;;;;15.45;66.87;102363.72;5031195;28;20484;-73
2023/05/23 08:30:41;;;;;;;22.87;3.20;;;;;;;15.69;65.83;102379.97;5035445;28;20033;-73
2023/05/23 08:33:06;;;;;;;21.43;3.87;;;;;;;15.90;63.50;102371.72;5032406;28;20056;-72
2023/05/23 08:35:35;;;;;;;;;;;;;;;15.88;63.37;102378.50;5029616;28;20140;-73
2023/05/23 08:38:04;;;;;;;26.70;4.15;;;;;;;15.58;64.69;102380.47;5031567;28;19917;-73
2023/05/23 08:40:31;;;;;;;26.55;4.05;;;;;;;15.56;65.73;102381.69;5037948;28;20025;-73
2023/05/23 08:42:57;;;;;;;17.27;3.67;;;;;;;15.16;66.63;102379.41;5034340;28;20029;-73
2023/05/23 08:45:22;;;;;;;17.83;3.97;;;;;;;15.22;66.57;102378.66;5031706;28;20033;-73
2023/05/23 08:47:51;;;;;;;19.50;4.17;;;;;;;15.61;65.40;102379.22;5032312;28;20033;-73
2023/05/23 08:50:17;;;;;;;19.65;3.83;;;;;;;15.79;63.50;102374.16;5037057;28;20091;-73
2023/05/23 08:52:56;;;;;;;19.15;4.30;;;;;;;15.83;63.30;102379.09;5036823;28;20047;-73
2023/05/23 08:55:26;;;;;;;20.15;4.10;;;;;;;15.90;64.94;102377.25;5031924;28;20041;-73
2023/05/23 08:57:59;;;;;;;31.08;4.35;;;;;;;15.92;63.79;102385.34;5030563;28;20075;-73
2023/05/23 09:00:25;;;;;;;17.35;3.83;;;;;;;16.11;63.53;102393.03;5038012;28;20033;-73
2023/05/23 09:02:51;;;;;;;23.60;3.88;;;;;;;16.38;61.92;102392.25;5031881;28;20025;-73
2023/05/23 09:05:16;;;;;;;13.87;3.30;;;;;;;16.30;61.85;102406.22;5028375;28;20056;-72
2023/05/23 09:07:46;;;;;;;23.07;4.77;;;;;;;16.40;60.42;102392.94;5029650;28;20029;-73
2023/05/23 09:10:15;;;;;;;13.68;3.50;;;;;;;16.11;60.22;102393.03;5033934;28;20397;-73
2023/05/23 09:12:42;;;;;;;24.52;3.72;;;;;;;15.98;59.97;102398.41;5033434;28;20139;-73
2023/05/23 09:15:09;;;;;;;17.58;3.70;;;;;;;16.49;60.40;102400.06;5066711;28;20048;-74
2023/05/23 09:17:35;;;;;;;20.42;4.28;;;;;;;16.13;60.79;102396.44;5035339;28;20719;-74
2023/05/23 09:20:11;;;;;;;19.20;3.60;;;;;;;17.17;60.43;102391.88;5033539;28;20029;-73
2023/05/23 09:22:36;;;;;;;23.65;3.85;;;;;;;16.83;58.31;102395.50;5034541;28;20508;-74
2023/05/23 09:25:02;;;;;;;18.70;3.73;;;;;;;17.40;56.98;102400.84;5032786;28;20025;-73
2023/05/23 09:27:27;;;;;;;23.57;3.83;;;;;;;17.40;57.46;102398.91;5031129;28;20022;-73
2023/05/23 09:29:53;;;;;;;20.10;4.83;;;;;;;17.00;58.37;102407.09;5033738;28;20403;-74
2023/05/23 09:32:19;;;;;;;16.90;3.40;;;;;;;16.26;59.96;102407.66;5032403;28;20034;-74
2023/05/23 09:34:55;;;;;;;25.42;4.25;;;;;;;16.46;60.46;102406.84;5033241;28;20029;-74
2023/05/23 09:37:23;;;;;;;12.77;3.85;;;;;;;16.61;59.59;102409.53;5019025;28;20501;-73
2023/05/23 09:39:48;;;;;;;24.20;4.72;;;;;;;16.40;59.05;102406.78;5017992;28;20026;-73
2023/05/23 09:42:24;;;;;;;27.47;3.90;;;;;;;16.78;58.84;102411.84;5018212;28;20044;-73
2023/05/23 09:44:49;;;;;;;18.95;4.18;;;;;;;16.47;60.26;102408.56;5021328;28;20021;-73
2023/05/23 09:47:15;;;;;;;22.63;4.20;;;;;;;16.42;59.34;102407.41;5029454;28;20511;-74
2023/05/23 09:49:45;;;;;;;23.45;4.13;;;;;;;16.33;60.21;102405.81;5015099;28;20036;-74
2023/05/23 09:52:12;;;;;;;19.15;4.30;;;;;;;16.40;58.08;102413.19;5018316;28;20029;-75
2023/05/23 09:54:38;;;;;;;16.00;3.92;;;;;;;16.97;56.38;102404.75;5016498;28;20030;-74
2023/05/23 09:57:08;;;;;;;19.10;3.77;;;;;;;17.85;54.17;102400.19;5019528;28;20037;-73
2023/05/23 09:59:38;;;;;;;15.18;4.30;;;;;;;17.51;54.99;102414.94;5019607;28;20301;-74
2023/05/23 10:02:07;;;;;;;20.48;4.28;;;;;;;17.01;56.05;102409.69;5032119;28;20033;-73
2023/05/23 10:04:34;;;;;;;27.48;4.28;;;;;;;16.80;57.04;102415.25;5047761;28;20037;-74
2023/05/23 10:07:21;;;;;;;21.67;4.38;;;;;;;16.94;57.71;102416.22;5020022;28;20033;-74
2023/05/23 10:10:02;;;;;;;23.52;4.53;;;;;;;17.54;55.64;102405.38;5014232;28;20429;-74
2023/05/23 10:12:45;;;;;;;14.98;3.90;;;;;;;17.93;54.94;102417.50;5018481;28;20072;-73
2023/05/23 10:15:13;;;;;;;17.42;3.60;;;;;;;17.55;54.56;102415.41;5019662;28;20071;-74
2023/05/23 10:17:46;;;;;;;24.65;4.22;;;;;;;17.20;53.95;102414.53;5013733;28;20030;-73
2023/05/23 10:20:14;;;;;;;14.93;3.67;;;;;;;17.58;53.67;102409.44;5017720;28;20049;-73
2023/05/23 10:22:41;;;;;;;18.88;3.70;;;;;;;17.27;53.27;102417.31;5011356;28;20026;-73
2023/05/23 10:25:09;;;;;;;;;;;;;;;17.27;54.36;102425.63;5019709;28;20156;-72
2023/05/23 10:27:36;;;;;;;21.20;4.72;;;;;;;18.18;53.15;102417.81;5018971;28;19976;-71
2023/05/23 10:30:02;;;;;;;16.27;4.20;;;;;;;17.63;52.91;102423.53;5017162;28;20026;-73
2023/05/23 10:32:29;;;;;;;16.17;3.58;;;;;;;17.41;52.53;102425.56;5018611;28;20033;-71
2023/05/23 10:35:01;;;;;;;18.33;4.25;;;;;;;17.46;53.58;102419.41;5018048;28;20045;-71
2023/05/23 10:38:13;;;;;;;20.77;4.53;;;;;;;16.86;56.04;102431.06;5015805;28;20041;-71
2023/05/23 10:41:18;;;;;;;22.98;4.53;;;;;;;16.68;58.53;102436.22;5021496;28;20071;-72
2023/05/23 10:43:52;;;;;;;28.17;4.65;;;;;;;16.73;59.80;102436.50;5014817;28;20029;-72
2023/05/23 10:46:21;;;;;;;23.60;5.53;;;;;;;17.01;58.58;102433.72;5015077;28;20026;-72
2023/05/23 10:48:46;;;;;;;15.15;4.28;;;;;;;17.11;58.96;102424.03;5018688;28;20444;-71
2023/05/23 10:51:14;;;;;;;22.77;4.90;;;;;;;17.88;55.58;102427.53;5021312;28;20108;-73
2023/05/23 10:53:41;;;;;;;20.52;5.07;;;;;;;18.03;55.00;102425.47;5009171;28;20072;-73
2023/05/23 10:56:07;;;;;;;;;;;;;;;18.76;52.85;102419.88;5018445;28;20029;-72
2023/05/23 10:58:34;;;;;;;20.73;4.18;;;;;;;18.82;53.75;102416.25;5012690;28;19925;-71
2023/05/23 11:01:12;;;;;;;25.17;4.72;;;;;;;18.16;54.73;102425.50;5020882;28;22062;-73
2023/05/23 11:03:47;;;;;;;16.95;3.45;;;;;;;17.71;55.34;102435.31;5015024;28;20057;-72
2023/05/23 11:06:32;;;;;;;29.52;4.65;;;;;;;17.89;55.43;102437.56;5022433;28;20022;-72
2023/05/23 11:09:17;;;;;;;21.50;4.40;;;;;;;17.78;55.68;102421.50;5015075;28;20180;-72
2023/05/23 11:12:04;;;;;;;27.13;4.90;;;;;;;17.19;56.72;102426.63;5012830;28;20413;-72
2023/05/23 11:14:32;;;;;;;19.00;3.72;;;;;;;17.55;57.52;102430.13;5018520;28;20022;-72
2023/05/23 11:17:19;;;;;;;22.17;5.20;;;;;;;18.00;55.84;102431.41;5015967;28;20124;-72